Time;durP1;ratioP1;P1;durP2;ratioP2;P2;SDS_P1;SDS_P2;PMS_P1;PMS_P2;Temp;Humidity;BMP_temperature;BMP_pressure;BME280_temperature;BME280_humidity;BME280_pressure;Samples;Min_cycle;Max_cycle;Signal;HPM_P1;HPM_P2
2023/08/06 00:00:50;;;;;;;3.20;2.78;;;;;;;13.84;100.00;97720.81;4189114;28;20076;-73
2023/08/06 00:02:51;;;;;;;5.50;2.95;;;;;;;13.83;100.00;97718.47;4157069;28;20056;-73
2023/08/06 00:04:52;;;;;;;5.07;3.20;;;;;;;13.85;100.00;97719.63;4173846;28;20052;-73
2023/08/06 00:06:53;;;;;;;4.55;2.90;;;;;;;13.82;100.00;97709.34;4169433;28;20053;-73
2023/08/06 00:08:54;;;;;;;3.92;3.10;;;;;;;13.81;100.00;97704.97;4170337;28;20341;-73
2023/08/06 00:10:55;;;;;;;4.30;2.92;;;;;;;13.76;100.00;97695.09;4172156;28;20384;-73
2023/08/06 00:12:55;;;;;;;5.20;3.38;;;;;;;13.71;100.00;97694.78;4170953;28;20120;-72
2023/08/06 00:14:55;;;;;;;3.53;3.10;;;;;;;13.65;100.00;97685.31;4171896;28;20048;-73
2023/08/06 00:16:56;;;;;;;4.00;3.00;;;;;;;13.62;100.00;97675.84;4172262;28;20148;-73
2023/08/06 00:18:56;;;;;;;4.13;3.10;;;;;;;13.64;100.00;97675.41;4172511;28;20135;-73
2023/08/06 00:20:56;;;;;;;3.42;3.00;;;;;;;13.66;100.00;97673.03;4174492;28;20409;-73
2023/08/06 00:22:57;;;;;;;5.47;2.80;;;;;;;13.67;100.00;97675.38;4172536;28;20037;-72
2023/08/06 00:24:57;;;;;;;3.22;2.92;;;;;;;13.63;100.00;97665.50;4173465;28;20045;-72
2023/08/06 00:26:57;;;;;;;3.83;3.30;;;;;;;13.62;100.00;97653.59;4171990;28;20302;-72
2023/08/06 00:28:58;;;;;;;3.30;2.85;;;;;;;13.66;100.00;97651.56;4173665;28;20068;-73
2023/08/06 00:30:58;;;;;;;3.30;3.00;;;;;;;13.70;100.00;97646.72;4173275;28;20034;-72
2023/08/06 00:32:58;;;;;;;4.57;2.90;;;;;;;13.74;100.00;97653.03;4172799;28;20056;-72
2023/08/06 00:34:59;;;;;;;5.35;3.05;;;;;;;13.77;100.00;97638.28;4173666;28;20175;-72
2023/08/06 00:36:59;;;;;;;3.75;3.20;;;;;;;13.76;100.00;97635.94;4171985;28;20149;-72
2023/08/06 00:38:59;;;;;;;10.13;3.53;;;;;;;13.70;100.00;97635.63;4171337;28;20049;-72
2023/08/06 00:41:00;;;;;;;3.78;3.20;;;;;;;13.61;100.00;97632.56;4173304;28;20291;-73
2023/08/06 00:43:00;;;;;;;3.58;2.80;;;;;;;13.55;100.00;97633.44;4169324;28;20061;-72
2023/08/06 00:45:01;;;;;;;3.92;2.95;;;;;;;13.53;100.00;97636.66;4172134;28;20056;-73
2023/08/06 00:47:02;;;;;;;5.38;3.63;;;;;;;13.55;100.00;97625.91;4173116;28;20052;-72
2023/08/06 00:49:03;;;;;;;3.80;3.10;;;;;;;13.59;100.00;97628.66;4172028;28;20273;-72
2023/08/06 00:51:03;;;;;;;5.88;3.35;;;;;;;13.57;100.00;97623.50;4171406;28;20068;-72
2023/08/06 00:53:04;;;;;;;3.30;3.00;;;;;;;13.57;100.00;97622.69;4171865;28;20053;-72
2023/08/06 00:55:05;;;;;;;6.03;3.70;;;;;;;13.48;100.00;97626.78;4173556;28;20073;-72
2023/08/06 00:57:07;;;;;;;7.95;3.60;;;;;;;13.42;100.00;97622.91;4172021;28;20045;-73
2023/08/06 00:59:08;;;;;;;3.50;3.20;;;;;;;13.37;100.00;97628.94;4172086;28;20115;-72
2023/08/06 01:01:09;;;;;;;3.83;3.42;;;;;;;13.36;100.00;97624.56;4171873;28;20048;-72
2023/08/06 01:03:09;;;;;;;5.18;3.38;;;;;;;13.40;100.00;97624.50;4171984;28;20045;-72
2023/08/06 01:05:09;;;;;;;4.55;3.28;;;;;;;13.42;100.00;97624.91;4171878;28;20496;-72
2023/08/06 01:07:33;;;;;;;3.22;2.78;;;;;;;13.43;100.00;97616.16;4172189;28;20132;-72
2023/08/06 01:10:16;;;;;;;3.85;3.00;;;;;;;13.42;100.00;97609.03;4173319;28;20280;-72
2023/08/06 01:12:48;;;;;;;3.95;2.72;;;;;;;13.47;100.00;97613.31;4170727;28;20065;-73
2023/08/06 01:15:00;;;;;;;4.43;2.97;;;;;;;13.48;100.00;97612.09;4171599;28;20049;-72
2023/08/06 01:17:01;;;;;;;4.97;3.10;;;;;;;13.47;100.00;97614.09;4167665;28;20056;-72
2023/08/06 01:19:01;;;;;;;6.22;3.15;;;;;;;13.44;100.00;97616.94;4171307;28;20041;-72
2023/08/06 01:21:02;;;;;;;5.15;2.88;;;;;;;13.43;100.00;97613.38;4170423;28;20397;-72
2023/08/06 01:23:02;;;;;;;3.60;3.03;;;;;;;13.45;100.00;97610.97;4173113;28;20049;-72
2023/08/06 01:25:03;;;;;;;3.42;2.97;;;;;;;13.48;100.00;97617.66;4171706;28;20274;-73
2023/08/06 01:27:14;;;;;;;3.95;3.05;;;;;;;13.48;100.00;97614.88;4172189;28;20037;-72
2023/08/06 01:29:17;;;;;;;4.05;2.90;;;;;;;13.48;100.00;97623.22;4172690;28;20049;-72
2023/08/06 01:31:35;;;;;;;3.47;2.97;;;;;;;13.48;100.00;97621.22;4172088;28;20400;-72
2023/08/06 01:33:40;;;;;;;6.72;3.00;;;;;;;13.55;100.00;97625.13;4170999;28;20048;-73
2023/08/06 01:35:41;;;;;;;4.68;2.60;;;;;;;13.55;100.00;97619.56;4171873;28;20037;-72
2023/08/06 01:37:42;;;;;;;3.35;2.60;;;;;;;13.54;100.00;97620.78;4172550;28;20099;-72
2023/08/06 01:39:43;;;;;;;4.30;3.10;;;;;;;13.48;100.00;97615.66;4171908;28;20223;-72
2023/08/06 01:41:43;;;;;;;3.13;2.83;;;;;;;13.50;100.00;97609.72;4172294;28;20059;-72
2023/08/06 01:43:44;;;;;;;3.80;2.80;;;;;;;13.52;100.00;97601.75;4171185;28;20041;-73
2023/08/06 01:45:44;;;;;;;3.80;2.90;;;;;;;13.52;100.00;97610.06;4172174;28;20041;-73
2023/08/06 01:47:45;;;;;;;3.63;2.97;;;;;;;13.54;100.00;97607.66;4171620;28;20425;-72
2023/08/06 01:49:45;;;;;;;4.18;2.90;;;;;;;13.54;100.00;97606.88;4171104;28;20045;-73
2023/08/06 01:51:45;;;;;;;4.28;2.67;;;;;;;13.54;100.00;97610.44;4171874;28;20447;-72
2023/08/06 01:53:46;;;;;;;4.32;3.30;;;;;;;13.53;100.00;97596.97;4170915;28;20399;-72
2023/08/06 01:55:49;;;;;;;3.28;2.80;;;;;;;13.55;100.00;97600.09;4171685;28;20048;-72
2023/08/06 01:57:49;;;;;;;3.30;2.97;;;;;;;13.54;100.00;97595.75;4171800;28;20045;-72
2023/08/06 01:59:50;;;;;;;2.65;2.42;;;;;;;13.53;100.00;97599.75;4171832;28;20049;-72
2023/08/06 02:01:50;;;;;;;7.45;3.03;;;;;;;13.52;100.00;97592.63;4172018;28;20590;-72
2023/08/06 02:03:50;;;;;;;4.75;3.42;;;;;;;13.54;100.00;97590.19;4171192;28;20073;-72
2023/08/06 02:05:51;;;;;;;4.80;3.05;;;;;;;13.51;100.00;97572.38;4172139;28;20511;-73
2023/08/06 02:07:51;;;;;;;2.90;2.60;;;;;;;13.51;100.00;97571.59;4171554;28;20080;-72
2023/08/06 02:09:51;;;;;;;4.70;3.17;;;;;;;13.50;100.00;97570.81;4172270;28;20041;-72
2023/08/06 02:11:52;;;;;;;4.20;2.88;;;;;;;13.45;100.00;97560.16;4171140;28;20076;-72
2023/08/06 02:13:52;;;;;;;3.88;3.20;;;;;;;13.42;100.00;97563.78;4170598;28;20069;-72
2023/08/06 02:15:52;;;;;;;5.22;2.90;;;;;;;13.37;100.00;97556.69;4173343;28;20112;-72
2023/08/06 02:17:53;;;;;;;3.78;2.83;;;;;;;13.38;100.00;97558.25;4172538;28;20079;-72
2023/08/06 02:19:53;;;;;;;4.18;3.25;;;;;;;13.35;100.00;97548.00;4171976;28;20143;-72
2023/08/06 02:21:53;;;;;;;8.18;3.25;;;;;;;13.35;100.00;97550.78;4172092;28;20116;-72
2023/08/06 02:23:53;;;;;;;3.92;3.30;;;;;;;13.33;100.00;97547.63;4170589;28;20045;-72
2023/08/06 02:26:02;;;;;;;7.10;3.60;;;;;;;13.26;100.00;97544.94;4174396;28;20090;-73
2023/08/06 02:28:02;;;;;;;4.95;3.30;;;;;;;13.24;100.00;97549.34;4175796;28;20064;-73
2023/08/06 02:30:04;;;;;;;5.53;3.38;;;;;;;13.24;100.00;97552.13;4175057;28;20044;-73
2023/08/06 02:32:05;;;;;;;3.58;3.28;;;;;;;13.25;100.00;97556.50;4175089;28;20040;-73
2023/08/06 02:34:05;;;;;;;4.15;3.75;;;;;;;13.29;100.00;97555.22;4174869;28;20473;-73
2023/08/06 02:36:05;;;;;;;3.53;3.17;;;;;;;13.34;100.00;97549.22;4174878;28;20097;-73
2023/08/06 02:38:06;;;;;;;4.50;3.28;;;;;;;13.39;100.00;97548.72;4174650;28;20802;-72
2023/08/06 02:40:07;;;;;;;4.68;3.53;;;;;;;13.36;100.00;97537.66;4174681;28;20025;-73
2023/08/06 02:42:07;;;;;;;3.78;3.25;;;;;;;13.33;100.00;97532.97;4175554;28;20086;-72
2023/08/06 02:44:08;;;;;;;3.35;2.97;;;;;;;13.30;100.00;97525.44;4173952;28;20381;-72
2023/08/06 02:46:08;;;;;;;4.60;3.08;;;;;;;13.27;100.00;97520.75;4174914;28;20088;-72
2023/08/06 02:48:08;;;;;;;7.47;3.45;;;;;;;13.27;100.00;97524.31;4175090;28;20040;-72
2023/08/06 02:50:09;;;;;;;5.00;3.30;;;;;;;13.27;100.00;97518.75;4174379;28;20551;-72
2023/08/06 02:52:09;;;;;;;6.38;3.28;;;;;;;13.22;100.00;97516.44;4174537;28;20059;-72
2023/08/06 02:54:09;;;;;;;4.15;3.15;;;;;;;13.21;100.00;97523.97;4173642;28;20480;-72
2023/08/06 02:56:10;;;;;;;3.83;3.40;;;;;;;13.16;100.00;97531.97;4175384;28;20056;-72
2023/08/06 02:58:10;;;;;;;4.32;3.58;;;;;;;13.14;100.00;97534.38;4174977;28;20120;-72
2023/08/06 03:00:11;;;;;;;4.63;3.40;;;;;;;13.15;100.00;97525.59;4175635;28;20531;-72
2023/08/06 03:02:11;;;;;;;5.80;2.75;;;;;;;13.18;100.00;97521.22;4175480;28;20045;-72
2023/08/06 03:04:12;;;;;;;6.22;3.42;;;;;;;13.14;100.00;97518.47;4173501;28;20105;-72
2023/08/06 03:06:12;;;;;;;13.02;3.38;;;;;;;13.14;100.00;97512.16;4174343;28;20032;-72
2023/08/06 03:08:13;;;;;;;5.50;3.38;;;;;;;13.16;100.00;97513.31;4174728;28;20065;-72
2023/08/06 03:10:13;;;;;;;5.72;4.18;;;;;;;13.16;100.00;97509.75;4173866;28;20037;-72
2023/08/06 03:12:13;;;;;;;6.35;3.33;;;;;;;13.13;100.00;97500.25;4174301;28;20025;-72
2023/08/06 03:14:14;;;;;;;3.80;3.40;;;;;;;13.16;100.00;97490.31;4172913;28;20500;-72
2023/08/06 03:16:14;;;;;;;3.97;3.38;;;;;;;13.16;100.00;97493.88;4174450;28;20028;-72
2023/08/06 03:18:14;;;;;;;8.68;3.78;;;;;;;13.16;100.00;97491.09;4174372;28;20031;-72
2023/08/06 03:20:15;;;;;;;6.82;3.33;;;;;;;13.11;100.00;97499.91;4174166;28;20037;-72
2023/08/06 03:22:15;;;;;;;7.97;3.90;;;;;;;13.08;100.00;97502.72;4174505;28;20427;-72
2023/08/06 03:24:15;;;;;;;6.57;3.70;;;;;;;13.03;100.00;97495.66;4173014;28;20036;-72
2023/08/06 03:26:16;;;;;;;5.03;3.80;;;;;;;12.99;100.00;97492.16;4173698;28;20075;-72
2023/08/06 03:28:16;;;;;;;7.70;3.70;;;;;;;13.00;100.00;97492.94;4174737;28;20373;-72
2023/08/06 03:30:17;;;;;;;4.35;3.40;;;;;;;13.00;100.00;97496.50;4174188;28;20036;-72
2023/08/06 03:32:17;;;;;;;6.25;3.65;;;;;;;13.03;100.00;97494.84;4174043;28;20477;-72
2023/08/06 03:34:17;;;;;;;14.00;4.30;;;;;;;13.01;100.00;97492.50;4173851;28;20090;-72
2023/08/06 03:36:18;;;;;;;4.57;3.15;;;;;;;13.03;100.00;97492.09;4173803;28;20032;-72
2023/08/06 03:38:18;;;;;;;4.68;3.17;;;;;;;13.08;100.00;97495.19;4172755;28;20067;-72
2023/08/06 03:40:18;;;;;;;4.68;3.75;;;;;;;13.07;100.00;97496.38;4174264;28;20041;-72
2023/08/06 03:42:19;;;;;;;5.07;3.28;;;;;;;13.08;100.00;97503.53;4173864;28;20029;-72
2023/08/06 03:44:19;;;;;;;4.68;4.07;;;;;;;13.09;100.00;97498.75;4172984;28;20040;-72
2023/08/06 03:46:19;;;;;;;6.30;3.65;;;;;;;13.09;100.00;97499.53;4174006;28;20607;-72
2023/08/06 03:48:19;;;;;;;4.95;3.70;;;;;;;13.04;100.00;97496.44;4173516;28;20028;-72
2023/08/06 03:50:20;;;;;;;3.38;2.92;;;;;;;13.04;100.00;97499.22;4173854;28;20140;-72
2023/08/06 03:52:20;;;;;;;5.70;3.22;;;;;;;13.06;100.00;97505.91;4173681;28;20047;-72
2023/08/06 03:54:20;;;;;;;4.18;3.60;;;;;;;13.05;100.00;97506.31;4172863;28;20421;-72
2023/08/06 03:56:21;;;;;;;4.35;3.63;;;;;;;13.02;100.00;97494.06;4173863;28;20535;-72
2023/08/06 03:58:21;;;;;;;4.38;3.50;;;;;;;13.01;100.00;97508.38;4173897;28;20040;-72
2023/08/06 04:00:21;;;;;;;5.43;3.78;;;;;;;12.96;100.00;97511.63;4174052;28;20507;-72
2023/08/06 04:02:22;;;;;;;4.97;3.08;;;;;;;12.92;100.00;97492.25;4173037;28;20349;-72
2023/08/06 04:04:22;;;;;;;8.50;4.00;;;;;;;12.94;100.00;97496.16;4172859;28;20045;-72
2023/08/06 04:06:22;;;;;;;5.57;3.40;;;;;;;12.93;100.00;97491.81;4173809;28;20056;-72
2023/08/06 04:08:23;;;;;;;5.75;3.97;;;;;;;12.92;100.00;97484.69;4173263;28;20044;-72
2023/08/06 04:10:23;;;;;;;5.07;3.60;;;;;;;12.90;100.00;97487.06;4173708;28;20440;-72
2023/08/06 04:12:24;;;;;;;4.35;3.65;;;;;;;12.90;100.00;97487.06;4173129;28;20045;-72
2023/08/06 04:14:26;;;;;;;6.13;3.38;;;;;;;12.91;100.00;97480.34;4173032;28;20045;-72
2023/08/06 04:16:26;;;;;;;3.88;2.95;;;;;;;12.94;100.00;97481.50;4172277;28;20528;-72
2023/08/06 04:18:26;;;;;;;5.00;3.33;;;;;;;12.96;100.00;97479.09;4173278;28;20132;-72
2023/08/06 04:20:27;;;;;;;4.88;3.33;;;;;;;12.96;100.00;97473.53;4173419;28;20128;-72
2023/08/06 04:22:27;;;;;;;6.70;3.25;;;;;;;13.05;100.00;97478.56;4172510;28;20041;-72
2023/08/06 04:24:27;;;;;;;6.10;3.50;;;;;;;13.08;100.00;97472.97;4173195;28;20033;-72
2023/08/06 04:26:29;;;;;;;4.30;3.60;;;;;;;13.06;100.00;97472.59;4172703;28;20045;-72
2023/08/06 04:28:30;;;;;;;5.43;3.38;;;;;;;13.08;100.00;97477.75;4173542;28;20049;-72
2023/08/06 04:30:30;;;;;;;3.80;2.97;;;;;;;13.10;100.00;97475.31;4173005;28;20047;-72
2023/08/06 04:32:30;;;;;;;3.63;2.72;;;;;;;13.11;100.00;97466.56;4172357;28;20370;-72
2023/08/06 04:34:31;;;;;;;4.50;2.70;;;;;;;13.12;100.00;97464.56;4173409;28;20045;-72
2023/08/06 04:36:31;;;;;;;4.43;3.28;;;;;;;13.16;100.00;97470.88;4172449;28;20084;-72
2023/08/06 04:38:31;;;;;;;7.57;3.33;;;;;;;13.19;100.00;97464.47;4172893;28;20040;-72
2023/08/06 04:40:36;;;;;;;4.60;3.40;;;;;;;13.17;100.00;97469.66;4173131;28;20094;-72
2023/08/06 04:42:36;;;;;;;5.45;3.30;;;;;;;13.14;100.00;97471.28;4172505;28;20041;-72
2023/08/06 04:44:36;;;;;;;5.85;3.33;;;;;;;13.12;100.00;97473.69;4172454;28;20071;-72
2023/08/06 04:46:37;;;;;;;7.43;3.65;;;;;;;13.13;100.00;97478.03;4172565;28;20137;-72
2023/08/06 04:48:37;;;;;;;5.45;3.13;;;;;;;13.10;100.00;97475.31;4172226;28;20404;-72
2023/08/06 04:50:37;;;;;;;4.85;3.00;;;;;;;13.11;100.00;97468.56;4171609;28;20049;-72
2023/08/06 04:52:38;;;;;;;5.00;3.28;;;;;;;13.13;100.00;97466.94;4172001;28;20049;-72
2023/08/06 04:54:38;;;;;;;5.40;3.10;;;;;;;13.13;100.00;97468.91;4172304;28;20045;-72
2023/08/06 04:56:38;;;;;;;5.30;3.45;;;;;;;13.09;100.00;97465.44;4172899;28;20437;-72
2023/08/06 04:58:38;;;;;;;5.05;3.35;;;;;;;13.12;100.00;97465.34;4172790;28;20046;-72
2023/08/06 05:00:39;;;;;;;4.05;3.03;;;;;;;13.16;100.00;97471.66;4173380;28;20396;-72
2023/08/06 05:02:39;;;;;;;3.47;2.90;;;;;;;13.21;100.00;97473.97;4172124;28;20040;-72
2023/08/06 05:04:40;;;;;;;7.78;3.22;;;;;;;13.22;100.00;97477.53;4172560;28;20063;-72
2023/08/06 05:06:41;;;;;;;5.00;3.10;;;;;;;13.24;100.00;97469.59;4172584;28;20125;-72
2023/08/06 05:08:41;;;;;;;9.48;3.15;;;;;;;13.28;100.00;97467.53;4172988;28;20132;-72
2023/08/06 05:10:44;;;;;;;5.18;3.10;;;;;;;13.28;100.00;97466.75;4172788;28;20134;-72
2023/08/06 05:12:44;;;;;;;;;;;;;;;13.28;100.00;97456.44;4172515;28;20577;-72
2023/08/06 05:14:44;;;;;;;8.03;3.30;;;;;;;13.27;100.00;97457.63;4172686;28;20341;-72
2023/08/06 05:16:44;;;;;;;4.75;3.45;;;;;;;13.23;100.00;97465.22;4172787;28;20366;-72
2023/08/06 05:18:45;;;;;;;7.28;3.70;;;;;;;13.18;100.00;97465.69;4172611;28;20404;-72
2023/08/06 05:20:45;;;;;;;7.22;3.75;;;;;;;13.20;100.00;97468.84;4172420;28;20524;-72
2023/08/06 05:22:46;;;;;;;13.32;4.15;;;;;;;13.18;100.00;97469.25;4143201;28;20092;-72
2023/08/06 05:24:46;;;;;;;4.90;3.05;;;;;;;13.21;100.00;97460.09;4171436;28;20072;-72
2023/08/06 05:26:47;;;;;;;4.50;2.95;;;;;;;13.26;100.00;97460.84;4172346;28;20351;-72
2023/08/06 05:28:47;;;;;;;5.15;2.65;;;;;;;13.31;100.00;97468.69;4171928;28;20107;-72
2023/08/06 05:30:48;;;;;;;6.95;3.67;;;;;;;13.35;100.00;97458.31;4171736;28;20045;-72
2023/08/06 05:32:48;;;;;;;4.38;3.15;;;;;;;13.37;100.00;97465.00;4171475;28;20460;-72
2023/08/06 05:34:48;;;;;;;4.95;3.80;;;;;;;13.38;100.00;97461.03;4171880;28;20055;-72
2023/08/06 05:36:49;;;;;;;5.28;4.32;;;;;;;13.42;100.00;97459.00;4173805;28;20036;-72
2023/08/06 05:38:49;;;;;;;6.68;3.75;;;;;;;13.43;100.00;97462.56;4172670;28;20051;-72
2023/08/06 05:40:49;;;;;;;9.50;4.75;;;;;;;13.46;100.00;97451.38;4173263;28;20087;-72
2023/08/06 05:42:50;;;;;;;10.60;4.47;;;;;;;13.49;100.00;97461.66;4172171;28;20045;-72
2023/08/06 05:44:50;;;;;;;8.65;4.40;;;;;;;13.51;100.00;97458.44;4172092;28;20064;-72
2023/08/06 05:46:51;;;;;;;12.63;4.30;;;;;;;13.54;100.00;97454.81;4172412;28;20095;-72
2023/08/06 05:48:51;;;;;;;7.68;4.47;;;;;;;13.55;100.00;97458.38;4171956;28;20044;-72
2023/08/06 05:50:52;;;;;;;8.80;4.15;;;;;;;13.56;100.00;97452.38;4171735;28;20041;-72
2023/08/06 05:52:52;;;;;;;6.63;4.03;;;;;;;13.58;100.00;97454.78;4172533;28;20245;-72
2023/08/06 05:54:53;;;;;;;9.23;4.90;;;;;;;13.59;100.00;97448.78;4173221;28;20159;-72
2023/08/06 05:56:53;;;;;;;7.60;4.03;;;;;;;13.62;100.00;97450.72;4172263;28;20071;-72
2023/08/06 05:58:53;;;;;;;4.75;4.00;;;;;;;13.67;100.00;97447.47;4170995;28;20085;-72
2023/08/06 06:00:54;;;;;;;7.57;4.10;;;;;;;13.71;100.00;97455.72;4173822;28;20088;-73
2023/08/06 06:02:54;;;;;;;7.30;3.80;;;;;;;13.74;100.00;97447.34;4174672;28;20045;-72
2023/08/06 06:04:54;;;;;;;6.20;3.78;;;;;;;13.81;100.00;97448.41;4174728;28;20049;-72
2023/08/06 06:06:55;;;;;;;3.97;3.28;;;;;;;13.85;100.00;97451.91;4175235;28;20091;-72
2023/08/06 06:08:55;;;;;;;4.32;3.42;;;;;;;13.90;100.00;97459.75;4175457;28;20504;-72
2023/08/06 06:10:56;;;;;;;6.82;3.72;;;;;;;13.93;100.00;97456.13;4175910;28;20064;-72
2023/08/06 06:12:56;;;;;;;6.20;3.80;;;;;;;13.97;100.00;97448.50;4174895;28;20049;-72
2023/08/06 06:14:56;;;;;;;4.85;3.95;;;;;;;14.01;100.00;97432.56;4176056;28;20037;-72
2023/08/06 06:16:57;;;;;;;4.97;3.50;;;;;;;14.04;100.00;97440.81;4175850;28;20084;-72
2023/08/06 06:18:57;;;;;;;6.68;3.75;;;;;;;14.08;100.00;97443.53;4175004;28;20099;-72
2023/08/06 06:20:57;;;;;;;4.22;3.47;;;;;;;14.11;100.00;97436.34;4174748;28;20504;-72
2023/08/06 06:22:58;;;;;;;3.50;3.10;;;;;;;14.16;100.00;97433.06;4174167;28;20083;-72
2023/08/06 06:24:58;;;;;;;4.82;4.00;;;;;;;14.17;100.00;97432.63;4174604;28;20040;-72
2023/08/06 06:26:59;;;;;;;5.03;3.70;;;;;;;14.21;100.00;97427.00;4174851;28;20049;-72
2023/08/06 06:28:59;;;;;;;5.20;4.00;;;;;;;14.26;100.00;97432.06;4176038;28;20044;-72
2023/08/06 06:31:01;;;;;;;5.43;4.07;;;;;;;14.31;100.00;97425.97;4189909;28;20131;-72
2023/08/06 06:33:01;;;;;;;5.43;3.67;;;;;;;14.36;100.00;97417.16;4174468;28;20401;-72
2023/08/06 06:35:02;;;;;;;5.43;3.63;;;;;;;14.40;100.00;97425.41;4175051;28;20308;-72
2023/08/06 06:37:02;;;;;;;5.72;4.00;;;;;;;14.39;100.00;97430.19;4174695;28;20056;-72
2023/08/06 06:39:02;;;;;;;11.48;4.63;;;;;;;14.42;100.00;97423.00;4174756;28;20049;-72
2023/08/06 06:41:03;;;;;;;11.40;4.70;;;;;;;14.44;100.00;97418.56;4175123;28;20256;-72
2023/08/06 06:43:03;;;;;;;8.23;4.07;;;;;;;14.48;100.00;97429.66;4174278;28;20044;-72
2023/08/06 06:45:04;;;;;;;6.13;4.13;;;;;;;14.49;100.00;97422.88;4174421;28;20156;-72
2023/08/06 06:47:04;;;;;;;7.88;3.97;;;;;;;14.52;100.00;97408.88;4173732;28;20545;-73
2023/08/06 06:49:05;;;;;;;7.82;4.05;;;;;;;14.57;100.00;97411.19;4174756;28;20404;-72
2023/08/06 06:51:05;;;;;;;3.75;3.40;;;;;;;14.60;100.00;97418.66;4174592;28;20088;-72
2023/08/06 06:53:06;;;;;;;5.93;3.33;;;;;;;14.64;100.00;97418.56;4173778;28;20512;-72
2023/08/06 06:55:06;;;;;;;7.50;4.03;;;;;;;14.71;100.00;97412.84;4175268;28;20447;-72
2023/08/06 06:57:06;;;;;;;5.93;4.25;;;;;;;14.73;100.00;97412.41;4174598;28;20120;-72
2023/08/06 06:59:07;;;;;;;7.82;4.40;;;;;;;14.79;100.00;97416.25;4174428;28;20140;-72
2023/08/06 07:01:09;;;;;;;4.45;3.63;;;;;;;14.76;100.00;97420.69;4172700;28;20674;-72
2023/08/06 07:03:10;;;;;;;;;;;;;;;14.81;100.00;97423.00;4173561;28;20063;-72
2023/08/06 07:05:10;;;;;;;5.00;4.00;;;;;;;14.85;100.00;97423.69;4175892;28;19917;-72
2023/08/06 07:07:10;;;;;;;5.85;3.95;;;;;;;14.85;100.00;97423.69;4173760;28;20052;-72
2023/08/06 07:09:11;;;;;;;7.63;4.45;;;;;;;14.90;100.00;97416.81;4174814;28;20043;-72
2023/08/06 07:11:11;;;;;;;5.03;4.57;;;;;;;14.92;100.00;97414.38;4173895;28;20057;-72
2023/08/06 07:13:11;;;;;;;7.13;4.30;;;;;;;14.97;100.00;97416.63;4172720;28;20063;-72
2023/08/06 07:15:12;;;;;;;7.85;4.38;;;;;;;15.02;100.00;97413.34;4174736;28;20411;-72
2023/08/06 07:17:12;;;;;;;6.25;4.13;;;;;;;15.00;100.00;97421.38;4173873;28;20402;-72
2023/08/06 07:19:12;;;;;;;6.63;3.92;;;;;;;15.02;100.00;97418.13;4174329;28;20358;-72
2023/08/06 07:21:13;;;;;;;6.80;4.10;;;;;;;14.98;100.00;97412.66;4173657;28;20052;-72
2023/08/06 07:23:14;;;;;;;4.70;3.80;;;;;;;15.00;100.00;97415.78;4173572;28;20041;-72
2023/08/06 07:25:15;;;;;;;7.07;4.00;;;;;;;15.03;100.00;97408.56;4174378;28;20120;-72
2023/08/06 07:27:15;;;;;;;4.47;4.03;;;;;;;15.04;100.00;97399.75;4174153;28;20081;-72
2023/08/06 07:29:19;;;;;;;4.53;3.83;;;;;;;15.09;100.00;97404.06;4174419;28;20072;-72
2023/08/06 07:31:19;;;;;;;4.85;4.35;;;;;;;15.13;100.00;97396.38;4173917;28;20049;-72
2023/08/06 07:33:20;;;;;;;5.30;4.15;;;;;;;15.19;100.00;97403.00;4173118;28;20060;-72
2023/08/06 07:35:20;;;;;;;4.65;3.97;;;;;;;15.23;100.00;97406.50;4173622;28;20072;-72
2023/08/06 07:37:20;;;;;;;7.03;4.22;;;;;;;15.30;100.00;97397.16;4174809;28;20148;-72
2023/08/06 07:39:22;;;;;;;4.30;3.80;;;;;;;15.34;100.00;97389.50;4169499;28;20138;-72
2023/08/06 07:41:23;;;;;;;5.33;3.37;;;;;;;15.48;100.00;97393.97;4163195;28;20057;-72
2023/08/06 07:43:23;;;;;;;4.63;4.07;;;;;;;15.56;100.00;97393.34;4172643;28;20648;-72
2023/08/06 07:45:24;;;;;;;5.05;3.95;;;;;;;15.63;100.00;97395.94;4167936;28;20042;-72
2023/08/06 07:47:24;;;;;;;3.75;3.35;;;;;;;15.75;100.00;97397.25;4174094;28;20083;-72
2023/08/06 07:49:25;;;;;;;4.68;3.50;;;;;;;15.87;100.00;97402.09;4174513;28;20404;-72
2023/08/06 07:51:25;;;;;;;5.90;4.07;;;;;;;15.97;100.00;97389.06;4174293;28;20052;-72
2023/08/06 07:53:32;;;;;;;4.32;3.72;;;;;;;16.04;100.00;97391.69;4173357;28;20124;-72
2023/08/06 07:55:32;;;;;;;6.15;3.50;;;;;;;16.12;100.00;97395.06;4173422;28;20052;-72
2023/08/06 07:57:34;;;;;;;4.85;3.22;;;;;;;16.28;100.00;97383.84;4172197;28;20196;-72
2023/08/06 07:59:34;;;;;;;3.30;3.00;;;;;;;16.44;100.00;97385.78;4173685;28;20045;-72
2023/08/06 08:01:35;;;;;;;7.57;3.35;;;;;;;16.53;100.00;97383.09;4171670;28;20660;-72
2023/08/06 08:03:35;;;;;;;3.55;2.53;;;;;;;16.57;100.00;97375.41;4172850;28;20045;-72
2023/08/06 08:05:35;;;;;;;2.85;2.13;;;;;;;16.59;100.00;97378.53;4175429;28;20464;-72
2023/08/06 08:07:35;;;;;;;3.13;2.45;;;;;;;16.61;100.00;97376.09;4174526;28;20080;-72
2023/08/06 08:09:36;;;;;;;2.63;2.40;;;;;;;16.63;100.00;97370.03;4172573;28;20128;-72
2023/08/06 08:11:36;;;;;;;2.95;2.10;;;;;;;16.60;100.00;97374.53;4174384;28;20073;-72
2023/08/06 08:13:36;;;;;;;3.38;2.22;;;;;;;16.59;100.00;97359.00;4172969;28;20667;-72
2023/08/06 08:15:37;;;;;;;4.00;2.47;;;;;;;16.62;100.00;97363.69;4174031;28;20080;-72
2023/08/06 08:17:37;;;;;;;3.00;2.53;;;;;;;16.85;100.00;97357.81;4173359;28;20075;-72
2023/08/06 08:19:37;;;;;;;3.25;2.67;;;;;;;16.98;100.00;97362.63;4173774;28;20509;-72
2023/08/06 08:21:38;;;;;;;4.55;2.70;;;;;;;17.02;100.00;97352.88;4172720;28;20059;-72
2023/08/06 08:23:39;;;;;;;3.85;2.97;;;;;;;17.07;100.00;97362.72;4171300;28;20106;-72
2023/08/06 08:25:39;;;;;;;3.40;2.63;;;;;;;17.06;100.00;97355.56;4172810;28;20053;-72
2023/08/06 08:27:39;;;;;;;3.65;2.53;;;;;;;17.09;100.00;97363.06;4173653;28;20125;-72
2023/08/06 08:29:40;;;;;;;4.25;2.85;;;;;;;17.07;100.00;97357.91;4173320;28;20105;-72
2023/08/06 08:31:40;;;;;;;3.88;2.88;;;;;;;17.10;100.00;97356.22;4173394;28;20151;-72
2023/08/06 08:33:40;;;;;;;3.15;2.30;;;;;;;17.11;100.00;97352.19;4172795;28;20071;-73
2023/08/06 08:35:40;;;;;;;6.28;2.83;;;;;;;17.15;100.00;97350.09;4172801;28;20405;-72
2023/08/06 08:37:42;;;;;;;3.47;2.50;;;;;;;17.33;100.00;97350.28;4173132;28;20126;-72
2023/08/06 08:39:42;;;;;;;3.90;2.40;;;;;;;17.57;100.00;97347.88;4173287;28;20555;-72
2023/08/06 08:41:43;;;;;;;4.47;2.30;;;;;;;17.78;100.00;97342.78;4172689;28;20063;-72
2023/08/06 08:43:43;;;;;;;3.45;2.22;;;;;;;17.99;100.00;97346.84;4171290;28;20171;-72
2023/08/06 08:45:49;;;;;;;2.35;2.10;;;;;;;18.09;100.00;97337.28;4172925;28;20523;-72
2023/08/06 08:47:50;;;;;;;4.30;2.13;;;;;;;18.17;100.00;97333.75;4168844;28;20159;-73
2023/08/06 08:49:55;;;;;;;2.50;2.13;;;;;;;18.13;100.00;97332.34;4172666;28;20092;-72
2023/08/06 08:51:57;;;;;;;5.05;2.40;;;;;;;18.18;100.00;97340.91;4171971;28;20056;-73
2023/08/06 08:53:57;;;;;;;2.83;2.10;;;;;;;18.23;100.00;97333.97;4170365;28;20061;-73
2023/08/06 08:55:58;;;;;;;3.33;2.20;;;;;;;18.18;100.00;97332.53;4169111;28;20075;-73
2023/08/06 08:57:58;;;;;;;3.17;1.95;;;;;;;18.11;100.00;97343.19;4167907;28;20045;-72
2023/08/06 08:59:59;;;;;;;2.30;1.90;;;;;;;17.96;100.00;97337.34;4173536;28;20161;-73
2023/08/06 09:02:01;;;;;;;3.13;2.10;;;;;;;17.89;100.00;97343.19;4173265;28;20509;-73
2023/08/06 09:04:02;;;;;;;3.70;2.30;;;;;;;17.71;100.00;97337.44;4170426;28;20037;-73
2023/08/06 09:06:04;;;;;;;3.55;2.17;;;;;;;17.65;100.00;97340.00;4172876;28;20033;-73
2023/08/06 09:08:04;;;;;;;4.93;2.50;;;;;;;17.61;100.00;97347.72;4172828;28;20460;-73
2023/08/06 09:10:09;;;;;;;2.90;2.25;;;;;;;17.57;100.00;97339.47;4172029;28;20025;-73
2023/08/06 09:12:13;;;;;;;4.00;2.10;;;;;;;17.53;100.00;97340.81;4173796;28;20029;-73
2023/08/06 09:14:14;;;;;;;2.80;2.40;;;;;;;17.71;100.00;97340.22;4172615;28;20029;-73
2023/08/06 09:16:14;;;;;;;3.50;2.15;;;;;;;17.89;100.00;97335.59;4172967;28;20033;-73
2023/08/06 09:18:14;;;;;;;3.35;2.70;;;;;;;17.94;100.00;97325.81;4172450;28;20544;-73
2023/08/06 09:20:16;;;;;;;5.07;1.90;;;;;;;18.08;100.00;97330.91;4172676;28;20032;-73
2023/08/06 09:22:16;;;;;;;2.83;2.10;;;;;;;18.23;100.00;97336.75;4172698;28;20145;-73